Edward G. Pitka Sr Airport
PAGA : now visible

Airfield :











YOU CAN JOIN US ON...

 
LOGIN :

Register | Disclaimer

   EN    FR    IT 

 









Legend :    VFR   Marginal VFR   IFR   Intensive IFR   Very Intensive IFR
Visi :
Ceiling :
>= 8 km
>= 3000ft
5 to 8 km
1000 to 3000 ft
1500m to 5 km
500 to 1000 ft
800 to 1500m
200 to 500 ft
< 800m
< 200 ft
Symbols :   Thunderstorms  Fog  Heavy snow  Heavy precipitations  Wind > 20 kt






- Airport Elevation : 153 ft
- IATA code : GAL


PAGA - Edward G. Pitka Sr

CURRENT METAR :
  • 311256Z AUTO 00000KT 10SM BKN095 M14/M16 A2995 RMK AO2 SLP146 T11391156 FZRANO

EXPIRED METARs :
  • 311156Z AUTO 18003KT 10SM FEW027 M13/M15 A2994 RMK AO2 SLP144 60000 T11331150 11106 21133 51002 FZRANO
  • 311147Z AUTO 19003KT 10SM SCT027 M13/M15 A2994 RMK AO2 FZRANO
  • 311056Z AUTO 17004KT 10SM CLR M13/M14 A2994 RMK AO2 SLP144 T11281144 FZRANO

TAF PAGA
Valid from the 31 at 12:00 until the 01 at 12:00 UTC


311128Z 3112/0112 17004KT P6SM VCSH OVC040
PAZA FIR / North America



MET'MAP, your aeronautical weather chart ! - Copyright ORBIFLY December 2007 - Disclaimer

ORBIFLY MET'MAP TEAM :

Programming & Development : Alexandra Zaïnal
Concept & original design : Baudouin d'Aumeries
Assistance for programming : Marc-Olivier Méhu
Technical & hardware support : Manuel Goepfert

Contact : metmap@orbifly.com




SOURCES & CREDITS :

   NOAA       Earth
Advisory